createdAt,value
2017-12-30T00:06:34.119Z,5.5
2017-12-30T00:16:47.987Z,5.5
2017-12-30T00:27:03.123Z,5.6
2017-12-30T00:37:17.830Z,5.7
2017-12-30T00:47:33.012Z,5.8
2017-12-30T00:57:48.666Z,5.7
2017-12-30T01:08:02.840Z,5.7
2017-12-30T01:18:17.000Z,5.6
2017-12-30T01:28:30.648Z,5.7
2017-12-30T01:38:45.572Z,5.6
2017-12-30T01:49:01.137Z,5.7
2017-12-30T01:59:15.433Z,5.7
2017-12-30T02:09:29.506Z,5.7
2017-12-30T02:19:43.216Z,5.8
2017-12-30T02:29:57.075Z,5.9
2017-12-30T02:40:11.222Z,5.7
2017-12-30T02:50:26.351Z,5.8
2017-12-30T03:00:41.612Z,5.6
2017-12-30T03:10:56.136Z,5.3
2017-12-30T03:21:11.022Z,5
2017-12-30T03:31:26.245Z,4.8
2017-12-30T03:41:40.432Z,4.8
2017-12-30T03:51:55.771Z,4.6
2017-12-30T04:02:09.752Z,4.5
2017-12-30T04:12:24.076Z,4.2
2017-12-30T04:22:39.114Z,4.2
2017-12-30T04:32:53.933Z,4.4
2017-12-30T04:43:08.568Z,4.6
2017-12-30T04:53:24.183Z,4.4
2017-12-30T05:03:37.887Z,4.4
2017-12-30T05:13:52.772Z,4.3
2017-12-30T05:24:08.096Z,4.4
2017-12-30T05:34:22.825Z,4.4
2017-12-30T05:44:37.191Z,4.4
2017-12-30T05:54:51.324Z,4.7
2017-12-30T06:05:05.139Z,4.9
2017-12-30T06:15:20.732Z,4.9
2017-12-30T06:25:34.603Z,4.9
2017-12-30T06:35:48.660Z,4.9
2017-12-30T06:46:03.653Z,4.7
2017-12-30T06:56:17.379Z,4.7
2017-12-30T07:06:32.971Z,4.6
2017-12-30T07:16:48.314Z,4.5
2017-12-30T07:27:02.218Z,4.7
2017-12-30T07:37:17.284Z,4.4
2017-12-30T07:47:31.689Z,4.4
2017-12-30T07:57:47.202Z,4.3
2017-12-30T08:08:02.702Z,4.4
2017-12-30T08:18:17.798Z,4.5
2017-12-30T08:28:32.067Z,4.6
2017-12-30T08:38:45.976Z,4.5
2017-12-30T08:48:59.921Z,4.7
2017-12-30T08:59:14.107Z,4.7
2017-12-30T09:09:29.369Z,4.7
2017-12-30T09:19:43.137Z,4.6
2017-12-30T09:29:58.317Z,4.7
2017-12-30T09:40:13.409Z,4.8
2017-12-30T09:50:28.115Z,4.9
2017-12-30T10:00:42.685Z,4.9
2017-12-30T10:10:57.186Z,5.2
2017-12-30T10:21:11.700Z,5.4
2017-12-30T10:31:26.639Z,5.6
2017-12-30T10:41:41.967Z,5.8
2017-12-30T10:51:57.404Z,6.1
2017-12-30T11:02:11.965Z,6.4
2017-12-30T11:12:27.031Z,7.1
2017-12-30T11:22:41.405Z,7.3
2017-12-30T11:32:55.928Z,7.5
2017-12-30T11:43:10.284Z,7.7
2017-12-30T11:53:24.505Z,8.3
2017-12-30T12:03:38.587Z,8.5
2017-12-30T12:13:54.028Z,8.8
2017-12-30T12:24:08.717Z,9.3
2017-12-30T12:34:22.459Z,9.5
2017-12-30T12:44:36.702Z,9.8
2017-12-30T12:54:51.245Z,10.2
2017-12-30T13:05:04.961Z,10.5
2017-12-30T13:15:19.896Z,10.9
2017-12-30T13:25:34.450Z,11.2
2017-12-30T13:35:49.380Z,11.4
2017-12-30T13:46:03.116Z,11.7
2017-12-30T13:56:17.980Z,11.8
2017-12-30T14:06:33.056Z,12
2017-12-30T14:16:48.721Z,11.9
2017-12-30T14:27:02.452Z,11.8
2017-12-30T14:37:16.433Z,11.8
2017-12-30T14:47:31.420Z,11.9
2017-12-30T14:57:46.769Z,12
2017-12-30T15:08:00.939Z,12
2017-12-30T15:18:15.296Z,12
2017-12-30T15:28:29.022Z,12
2017-12-30T15:38:43.793Z,12.1
2017-12-30T15:48:59.167Z,12
2017-12-30T15:59:13.899Z,12
2017-12-30T16:09:28.452Z,12
2017-12-30T16:19:42.842Z,12
2017-12-30T16:29:57.052Z,11.8
2017-12-30T16:40:11.958Z,11.6
2017-12-30T16:50:26.977Z,11.1
2017-12-30T17:00:42.594Z,11.1
2017-12-30T17:10:58.242Z,11.1
2017-12-30T17:21:11.945Z,11
2017-12-30T17:31:26.949Z,11.5
2017-12-30T17:41:41.721Z,11.4
2017-12-30T17:51:55.781Z,11.5
2017-12-30T18:02:10.498Z,11.4
2017-12-30T18:12:26.062Z,11.7
2017-12-30T18:22:40.034Z,11.6
2017-12-30T18:32:54.883Z,11.7
2017-12-30T18:43:09.643Z,11.7
2017-12-30T18:53:24.517Z,11.9
2017-12-30T19:03:40.139Z,11.9
2017-12-30T19:13:55.765Z,12.2
2017-12-30T19:24:09.804Z,12.2
2017-12-30T19:34:25.101Z,12
2017-12-30T19:44:39.804Z,12.1
2017-12-30T19:54:53.788Z,12.3
2017-12-30T20:05:08.676Z,12.4
2017-12-30T20:15:22.932Z,12.5
2017-12-30T20:25:37.064Z,12.3
2017-12-30T20:35:51.827Z,12.3
2017-12-30T20:46:05.863Z,12
2017-12-30T20:56:21.540Z,12.1
2017-12-30T21:06:35.758Z,12
2017-12-30T21:16:51.216Z,11.9
2017-12-30T21:27:06.128Z,11.8
2017-12-30T21:37:20.947Z,11.7
2017-12-30T21:47:35.929Z,11.8
2017-12-30T21:57:50.570Z,11.8
2017-12-30T22:08:05.606Z,12.1
2017-12-30T22:18:21.291Z,11.9
2017-12-30T22:28:35.060Z,11.9
2017-12-30T22:38:50.730Z,11.8
2017-12-30T22:49:05.480Z,12.1
2017-12-30T22:59:20.589Z,12
2017-12-30T23:09:34.575Z,12
2017-12-30T23:19:48.367Z,11.7
2017-12-30T23:30:02.475Z,11.6
2017-12-30T23:40:18.038Z,11.9
2017-12-30T23:50:32.362Z,11.5
